TRA68A BIKF-EHAM
Flight info
| Callsign | TRA68A |
|---|---|
| Flight time | N/A |
| Altitude | 35000 |
| Route | OSKUM3A OSKUM DCT RATSU/N0460F350 DCT DEVBI DCT ROKAN DCT TOPPA |
| Aircraft | A21N/M-SDE2E3FGHIRWXY/LB1 |
Departure
| Time | 2026-05-08 08:57 |
|---|---|
| Airport | Keflavik International Airport (BIKF) |
Arrival
| Time | N/A |
|---|---|
| Airport | Amsterdam Airport Schiphol (EHAM) |
| Time | Latitude | Longitude | Altitude | Speed | Heading |
|---|---|---|---|---|---|
| 2026-05-08 08:18 | 63.99483 | -22.62279 | 146 ft | 0 kts | 270° |
| 2026-05-08 08:42 | 63.99483 | -22.62259 | 146 ft | 4 kts | 270° |
| 2026-05-08 08:43 | 63.99483 | -22.62198 | 146 ft | 4 kts | 270° |
| 2026-05-08 08:43 | 63.99483 | -22.62136 | 146 ft | 4 kts | 270° |
| 2026-05-08 08:43 | 63.99483 | -22.62075 | 146 ft | 4 kts | 270° |
| 2026-05-08 08:43 | 63.99481 | -22.62073 | 146 ft | 4 kts | 257° |
| 2026-05-08 08:44 | 63.99467 | -22.62086 | 146 ft | 4 kts | 175° |
| 2026-05-08 08:44 | 63.99445 | -22.62061 | 146 ft | 4 kts | 150° |
| 2026-05-08 08:44 | 63.99430 | -22.62041 | 146 ft | 0 kts | 150° |
| 2026-05-08 08:48 | 63.99425 | -22.62034 | 146 ft | 2 kts | 150° |
| 2026-05-08 08:48 | 63.99407 | -22.62011 | 146 ft | 4 kts | 152° |
| 2026-05-08 08:48 | 63.99360 | -22.61987 | 146 ft | 9 kts | 174° |
| 2026-05-08 08:49 | 63.99289 | -22.61985 | 146 ft | 11 kts | 181° |
| 2026-05-08 08:49 | 63.99206 | -22.61989 | 146 ft | 13 kts | 181° |
| 2026-05-08 08:49 | 63.99171 | -22.61829 | 147 ft | 14 kts | 87° |
| 2026-05-08 08:49 | 63.99173 | -22.61599 | 152 ft | 15 kts | 89° |
| 2026-05-08 08:50 | 63.99174 | -22.61344 | 158 ft | 17 kts | 90° |
| 2026-05-08 08:50 | 63.99173 | -22.61209 | 160 ft | 6 kts | 91° |
| 2026-05-08 08:50 | 63.99151 | -22.61129 | 163 ft | 8 kts | 163° |
| 2026-05-08 08:50 | 63.99083 | -22.61122 | 164 ft | 12 kts | 180° |
| 2026-05-08 08:51 | 63.98987 | -22.61124 | 165 ft | 15 kts | 181° |
| 2026-05-08 08:51 | 63.98879 | -22.61127 | 165 ft | 16 kts | 180° |
| 2026-05-08 08:51 | 63.98763 | -22.61128 | 165 ft | 17 kts | 179° |
| 2026-05-08 08:51 | 63.98641 | -22.61127 | 166 ft | 18 kts | 181° |
| 2026-05-08 08:52 | 63.98510 | -22.61126 | 168 ft | 19 kts | 179° |
| 2026-05-08 08:52 | 63.98377 | -22.61128 | 164 ft | 20 kts | 180° |
| 2026-05-08 08:52 | 63.98237 | -22.61127 | 167 ft | 21 kts | 181° |
| 2026-05-08 08:52 | 63.98128 | -22.60972 | 172 ft | 21 kts | 143° |
| 2026-05-08 08:53 | 63.97978 | -22.60941 | 174 ft | 22 kts | 180° |
| 2026-05-08 08:53 | 63.97819 | -22.60941 | 175 ft | 23 kts | 180° |
| 2026-05-08 08:53 | 63.97655 | -22.60941 | 174 ft | 24 kts | 180° |
| 2026-05-08 08:53 | 63.97488 | -22.60941 | 171 ft | 24 kts | 180° |
| 2026-05-08 08:54 | 63.97314 | -22.60940 | 167 ft | 25 kts | 180° |
| 2026-05-08 08:54 | 63.97139 | -22.60940 | 161 ft | 26 kts | 179° |
| 2026-05-08 08:54 | 63.96959 | -22.60943 | 154 ft | 26 kts | 180° |
| 2026-05-08 08:54 | 63.96777 | -22.60941 | 147 ft | 27 kts | 180° |
| 2026-05-08 08:55 | 63.96592 | -22.60942 | 141 ft | 27 kts | 180° |
| 2026-05-08 08:55 | 63.96464 | -22.60873 | 141 ft | 13 kts | 106° |
| 2026-05-08 08:55 | 63.96461 | -22.60658 | 148 ft | 13 kts | 89° |
| 2026-05-08 08:55 | 63.96469 | -22.60556 | 150 ft | 7 kts | 42° |
| 2026-05-08 08:56 | 63.96527 | -22.60541 | 152 ft | 10 kts | 359° |
| 2026-05-08 08:56 | 63.96601 | -22.60543 | 154 ft | 15 kts | 359° |
| 2026-05-08 08:56 | 63.96928 | -22.60545 | 165 ft | 79 kts | 1° |
| 2026-05-08 08:56 | 63.97670 | -22.60541 | 178 ft | 132 kts | 0° |
| 2026-05-08 08:57 | 63.98709 | -22.60545 | 320 ft | 157 kts | 1° |
| 2026-05-08 08:57 | 63.99783 | -22.60542 | 898 ft | 153 kts | 0° |
| 2026-05-08 08:57 | 64.00862 | -22.60592 | 1494 ft | 158 kts | 358° |
| 2026-05-08 08:57 | 64.01994 | -22.60671 | 1917 ft | 171 kts | 359° |
| 2026-05-08 08:58 | 64.03224 | -22.60645 | 2392 ft | 185 kts | 1° |
| 2026-05-08 08:58 | 64.04540 | -22.60386 | 2981 ft | 195 kts | 13° |
| 2026-05-08 08:58 | 64.05692 | -22.58670 | 3607 ft | 207 kts | 47° |
| 2026-05-08 08:58 | 64.06382 | -22.55640 | 3958 ft | 233 kts | 75° |
| 2026-05-08 08:59 | 64.06406 | -22.51699 | 4222 ft | 260 kts | 91° |
| 2026-05-08 08:59 | 64.06319 | -22.47544 | 4912 ft | 267 kts | 88° |
| 2026-05-08 08:59 | 64.06275 | -22.43241 | 5642 ft | 272 kts | 90° |
| 2026-05-08 08:59 | 64.05803 | -22.39022 | 6397 ft | 281 kts | 115° |
| 2026-05-08 09:00 | 64.04821 | -22.35207 | 7184 ft | 282 kts | 119° |
| 2026-05-08 09:00 | 64.03800 | -22.31316 | 7945 ft | 285 kts | 118° |
| 2026-05-08 09:00 | 64.02802 | -22.27426 | 8695 ft | 289 kts | 118° |
| 2026-05-08 09:00 | 64.01801 | -22.23474 | 9486 ft | 292 kts | 118° |
| 2026-05-08 09:01 | 64.00786 | -22.19435 | 10292 ft | 295 kts | 118° |
| 2026-05-08 09:01 | 63.99744 | -22.15289 | 10800 ft | 309 kts | 118° |
| 2026-05-08 09:01 | 63.98655 | -22.10945 | 11119 ft | 328 kts | 118° |
| 2026-05-08 09:01 | 63.97490 | -22.06291 | 11410 ft | 347 kts | 118° |
| 2026-05-08 09:02 | 63.96282 | -22.01482 | 11686 ft | 364 kts | 118° |
| 2026-05-08 09:02 | 63.94975 | -21.96295 | 12000 ft | 379 kts | 118° |
| 2026-05-08 09:02 | 63.93662 | -21.91106 | 12583 ft | 385 kts | 118° |
| 2026-05-08 09:02 | 63.92309 | -21.85770 | 13224 ft | 388 kts | 118° |
| 2026-05-08 09:03 | 63.90967 | -21.80488 | 13826 ft | 392 kts | 118° |
| 2026-05-08 09:03 | 63.89584 | -21.75066 | 14384 ft | 396 kts | 118° |
| 2026-05-08 09:03 | 63.88198 | -21.69632 | 14882 ft | 400 kts | 118° |
| 2026-05-08 09:03 | 63.86794 | -21.64148 | 15369 ft | 403 kts | 118° |
| 2026-05-08 09:04 | 63.85390 | -21.58670 | 15826 ft | 407 kts | 117° |
| 2026-05-08 09:04 | 63.83968 | -21.53141 | 16315 ft | 410 kts | 117° |
| 2026-05-08 09:04 | 63.82524 | -21.47534 | 16754 ft | 413 kts | 117° |
| 2026-05-08 09:04 | 63.81063 | -21.41875 | 17193 ft | 416 kts | 117° |
| 2026-05-08 09:05 | 63.79587 | -21.36194 | 17639 ft | 419 kts | 117° |
| 2026-05-08 09:05 | 63.78094 | -21.30471 | 18071 ft | 422 kts | 117° |
| 2026-05-08 09:05 | 63.76742 | -21.24640 | 18478 ft | 422 kts | 109° |
| 2026-05-08 09:05 | 63.75919 | -21.18305 | 18826 ft | 418 kts | 96° |
| 2026-05-08 09:06 | 63.75489 | -21.11803 | 19175 ft | 419 kts | 93° |
| 2026-05-08 09:06 | 63.75113 | -21.05291 | 19519 ft | 421 kts | 93° |
| 2026-05-08 09:06 | 63.74721 | -20.98651 | 19865 ft | 424 kts | 93° |
| 2026-05-08 09:06 | 63.74321 | -20.92113 | 20204 ft | 426 kts | 93° |
| 2026-05-08 09:07 | 63.73905 | -20.85483 | 20540 ft | 428 kts | 93° |
| 2026-05-08 09:07 | 63.73480 | -20.78825 | 20870 ft | 430 kts | 93° |
| 2026-05-08 09:07 | 63.73050 | -20.72139 | 21208 ft | 432 kts | 93° |
| 2026-05-08 09:07 | 63.72610 | -20.65343 | 21534 ft | 435 kts | 92° |
| 2026-05-08 09:08 | 63.72169 | -20.58611 | 21853 ft | 437 kts | 92° |
| 2026-05-08 09:08 | 63.71723 | -20.51859 | 22180 ft | 439 kts | 92° |
| 2026-05-08 09:08 | 63.71139 | -20.44973 | 22497 ft | 447 kts | 99° |
| 2026-05-08 09:08 | 63.70069 | -20.38342 | 22832 ft | 455 kts | 108° |
| 2026-05-08 09:09 | 63.68754 | -20.31844 | 23182 ft | 459 kts | 110° |
| 2026-05-08 09:09 | 63.67398 | -20.25345 | 23529 ft | 461 kts | 110° |
| 2026-05-08 09:09 | 63.66045 | -20.18829 | 23860 ft | 464 kts | 109° |
| 2026-05-08 09:09 | 63.64684 | -20.12230 | 24173 ft | 466 kts | 109° |
| 2026-05-08 09:10 | 63.63317 | -20.05597 | 24498 ft | 468 kts | 109° |
| 2026-05-08 09:10 | 63.61940 | -19.98926 | 24817 ft | 470 kts | 109° |
| 2026-05-08 09:10 | 63.60560 | -19.92256 | 25137 ft | 473 kts | 109° |
| 2026-05-08 09:10 | 63.59167 | -19.85588 | 25454 ft | 475 kts | 109° |
| 2026-05-08 09:11 | 63.57752 | -19.78843 | 25764 ft | 477 kts | 109° |
| 2026-05-08 09:11 | 63.56334 | -19.72084 | 26081 ft | 479 kts | 109° |
| 2026-05-08 09:11 | 63.54917 | -19.65344 | 26361 ft | 481 kts | 109° |
| 2026-05-08 09:11 | 63.53483 | -19.58520 | 26638 ft | 483 kts | 109° |
| 2026-05-08 09:12 | 63.52053 | -19.51720 | 26909 ft | 485 kts | 109° |
| 2026-05-08 09:12 | 63.50623 | -19.44932 | 27274 ft | 484 kts | 109° |
| 2026-05-08 09:12 | 63.49185 | -19.38164 | 27649 ft | 483 kts | 109° |
| 2026-05-08 09:12 | 63.47746 | -19.31387 | 27985 ft | 482 kts | 109° |
| 2026-05-08 09:13 | 63.46309 | -19.24648 | 28340 ft | 482 kts | 109° |
| 2026-05-08 09:13 | 63.44847 | -19.17833 | 28679 ft | 482 kts | 109° |
| 2026-05-08 09:13 | 63.43396 | -19.11102 | 29026 ft | 481 kts | 109° |
| 2026-05-08 09:13 | 63.41948 | -19.04391 | 29367 ft | 480 kts | 109° |
| 2026-05-08 09:14 | 63.40502 | -18.97714 | 29709 ft | 480 kts | 109° |
| 2026-05-08 09:14 | 63.39045 | -18.90996 | 30040 ft | 479 kts | 109° |
| 2026-05-08 09:14 | 63.37594 | -18.84333 | 30349 ft | 479 kts | 110° |
| 2026-05-08 09:14 | 63.36136 | -18.77685 | 30621 ft | 479 kts | 110° |
| 2026-05-08 09:15 | 63.34665 | -18.70976 | 30894 ft | 478 kts | 110° |
| 2026-05-08 09:15 | 63.33211 | -18.64355 | 31167 ft | 478 kts | 110° |
| 2026-05-08 09:15 | 63.31753 | -18.57760 | 31408 ft | 477 kts | 111° |
| 2026-05-08 09:15 | 63.30286 | -18.51139 | 31681 ft | 477 kts | 111° |
| 2026-05-08 09:16 | 63.28827 | -18.44558 | 31933 ft | 477 kts | 111° |
| 2026-05-08 09:16 | 63.27346 | -18.37901 | 32200 ft | 476 kts | 111° |
| 2026-05-08 09:16 | 63.25884 | -18.31358 | 32436 ft | 476 kts | 111° |
| 2026-05-08 09:16 | 63.24400 | -18.24739 | 32689 ft | 476 kts | 111° |
| 2026-05-08 09:17 | 63.23043 | -18.18714 | 32904 ft | 475 kts | 112° |
| 2026-05-08 09:17 | 63.21566 | -18.12170 | 33117 ft | 475 kts | 112° |
| 2026-05-08 09:17 | 63.20093 | -18.05655 | 33353 ft | 474 kts | 112° |
| 2026-05-08 09:17 | 63.18599 | -17.99066 | 33566 ft | 474 kts | 112° |
| 2026-05-08 09:18 | 63.17122 | -17.92597 | 33774 ft | 474 kts | 112° |
| 2026-05-08 09:18 | 63.15644 | -17.86117 | 33953 ft | 474 kts | 112° |
| 2026-05-08 09:18 | 63.14162 | -17.79628 | 34157 ft | 473 kts | 113° |
| 2026-05-08 09:18 | 63.12659 | -17.73071 | 34328 ft | 472 kts | 113° |
| 2026-05-08 09:19 | 63.11176 | -17.66623 | 34481 ft | 472 kts | 113° |
| 2026-05-08 09:19 | 63.09697 | -17.60215 | 34625 ft | 471 kts | 113° |
| 2026-05-08 09:19 | 63.08206 | -17.53789 | 34765 ft | 471 kts | 114° |
| 2026-05-08 09:19 | 63.06703 | -17.47323 | 34896 ft | 471 kts | 114° |
| 2026-05-08 09:20 | 63.05211 | -17.40924 | 35027 ft | 471 kts | 114° |
| 2026-05-08 09:20 | 63.03723 | -17.34558 | 35149 ft | 470 kts | 114° |
| 2026-05-08 09:20 | 63.00710 | -17.21730 | 35226 ft | 470 kts | 114° |
| 2026-05-08 09:21 | 62.97699 | -17.08977 | 35202 ft | 470 kts | 114° |
| 2026-05-08 09:23 | 62.87089 | -16.64645 | 35190 ft | 471 kts | 115° |
| 2026-05-08 09:23 | 62.84020 | -16.51992 | 35174 ft | 470 kts | 115° |
| 2026-05-08 09:24 | 62.80942 | -16.39367 | 35184 ft | 470 kts | 115° |
| 2026-05-08 09:24 | 62.77850 | -16.26760 | 35184 ft | 470 kts | 116° |
| 2026-05-08 09:25 | 62.74761 | -16.14232 | 35180 ft | 470 kts | 116° |
| 2026-05-08 09:25 | 62.71647 | -16.01699 | 35178 ft | 470 kts | 116° |
| 2026-05-08 09:26 | 62.68518 | -15.89151 | 35182 ft | 470 kts | 116° |
| 2026-05-08 09:26 | 62.65385 | -15.76654 | 35176 ft | 471 kts | 116° |
| 2026-05-08 09:27 | 62.62237 | -15.64179 | 35175 ft | 473 kts | 116° |
| 2026-05-08 09:27 | 62.59106 | -15.51838 | 35168 ft | 472 kts | 116° |
| 2026-05-08 09:28 | 62.55939 | -15.39431 | 35157 ft | 473 kts | 116° |
| 2026-05-08 09:28 | 62.52728 | -15.26929 | 35159 ft | 473 kts | 117° |
| 2026-05-08 09:29 | 62.49545 | -15.14594 | 35158 ft | 474 kts | 117° |
| 2026-05-08 09:29 | 62.46315 | -15.02148 | 35153 ft | 473 kts | 117° |
| 2026-05-08 09:30 | 62.43077 | -14.89740 | 35149 ft | 473 kts | 117° |
| 2026-05-08 09:30 | 62.39833 | -14.77378 | 35144 ft | 474 kts | 117° |
| 2026-05-08 09:31 | 62.36579 | -14.65051 | 35137 ft | 474 kts | 117° |
| 2026-05-08 09:31 | 62.33324 | -14.52784 | 35132 ft | 474 kts | 117° |
| 2026-05-08 09:32 | 62.30045 | -14.40471 | 35123 ft | 474 kts | 117° |
| 2026-05-08 09:32 | 62.27091 | -14.29453 | 35106 ft | 474 kts | 118° |
| 2026-05-08 09:33 | 62.23788 | -14.17255 | 35107 ft | 475 kts | 118° |
| 2026-05-08 09:33 | 62.20478 | -14.05018 | 35105 ft | 474 kts | 118° |
| 2026-05-08 09:34 | 62.17152 | -13.92814 | 35096 ft | 473 kts | 118° |
| 2026-05-08 09:34 | 62.13823 | -13.80660 | 35095 ft | 474 kts | 119° |
| 2026-05-08 09:35 | 62.10476 | -13.68490 | 35089 ft | 474 kts | 119° |
| 2026-05-08 09:35 | 62.07129 | -13.56404 | 35076 ft | 474 kts | 119° |
| 2026-05-08 09:36 | 62.03747 | -13.44335 | 35068 ft | 474 kts | 120° |
| 2026-05-08 09:36 | 62.00401 | -13.32339 | 35062 ft | 474 kts | 120° |
| 2026-05-08 09:37 | 61.97000 | -13.20258 | 35056 ft | 474 kts | 120° |
| 2026-05-08 09:37 | 61.93587 | -13.08248 | 35048 ft | 474 kts | 120° |
| 2026-05-08 09:38 | 61.90193 | -12.96340 | 35036 ft | 474 kts | 120° |
| 2026-05-08 09:38 | 61.86795 | -12.84382 | 35032 ft | 474 kts | 121° |
| 2026-05-08 09:39 | 61.83369 | -12.72455 | 35023 ft | 474 kts | 121° |
| 2026-05-08 09:39 | 61.79946 | -12.60590 | 35009 ft | 473 kts | 121° |
| 2026-05-08 09:40 | 61.76488 | -12.48728 | 35006 ft | 474 kts | 121° |
| 2026-05-08 09:40 | 61.73042 | -12.36937 | 34994 ft | 473 kts | 122° |
| 2026-05-08 09:41 | 61.69609 | -12.25213 | 34979 ft | 473 kts | 122° |
| 2026-05-08 09:41 | 61.66129 | -12.13391 | 34972 ft | 472 kts | 122° |
| 2026-05-08 09:42 | 61.62664 | -12.01710 | 34978 ft | 472 kts | 122° |
| 2026-05-08 09:42 | 61.59186 | -11.90036 | 34969 ft | 473 kts | 122° |
| 2026-05-08 09:43 | 61.55692 | -11.78371 | 34955 ft | 472 kts | 123° |
| 2026-05-08 09:43 | 61.52170 | -11.66716 | 34945 ft | 472 kts | 123° |
| 2026-05-08 09:44 | 61.48676 | -11.55198 | 34943 ft | 472 kts | 123° |
| 2026-05-08 09:44 | 61.45138 | -11.43570 | 34939 ft | 472 kts | 123° |
| 2026-05-08 09:45 | 61.41613 | -11.32044 | 34925 ft | 472 kts | 123° |
| 2026-05-08 09:45 | 61.38076 | -11.20529 | 34916 ft | 472 kts | 123° |
| 2026-05-08 09:46 | 61.35105 | -11.10887 | 34915 ft | 472 kts | 123° |
| 2026-05-08 09:46 | 61.31555 | -10.99427 | 34910 ft | 472 kts | 124° |
| 2026-05-08 09:47 | 61.27996 | -10.88000 | 34896 ft | 472 kts | 124° |
| 2026-05-08 09:47 | 61.24422 | -10.76586 | 34889 ft | 471 kts | 124° |
| 2026-05-08 09:48 | 61.20836 | -10.65202 | 34886 ft | 473 kts | 124° |
| 2026-05-08 09:48 | 61.17230 | -10.53834 | 34877 ft | 472 kts | 124° |
| 2026-05-08 09:49 | 61.13626 | -10.42471 | 34880 ft | 472 kts | 124° |
| 2026-05-08 09:49 | 61.10024 | -10.31152 | 34868 ft | 473 kts | 125° |
| 2026-05-08 09:50 | 61.06400 | -10.19847 | 34854 ft | 472 kts | 125° |
| 2026-05-08 09:50 | 61.02751 | -10.08536 | 34856 ft | 472 kts | 125° |
| 2026-05-08 09:51 | 60.99298 | -9.97014 | 34847 ft | 474 kts | 117° |
| 2026-05-08 09:51 | 60.96513 | -9.84703 | 34841 ft | 474 kts | 116° |
| 2026-05-08 09:52 | 60.93735 | -9.72407 | 34836 ft | 475 kts | 117° |
| 2026-05-08 09:52 | 60.90933 | -9.60134 | 34825 ft | 475 kts | 117° |
| 2026-05-08 09:53 | 60.88126 | -9.47911 | 34821 ft | 475 kts | 117° |
| 2026-05-08 09:53 | 60.85295 | -9.35684 | 34817 ft | 475 kts | 117° |
| 2026-05-08 09:54 | 60.82434 | -9.23435 | 34814 ft | 475 kts | 117° |
| 2026-05-08 09:54 | 60.79601 | -9.11303 | 34807 ft | 475 kts | 118° |
| 2026-05-08 09:55 | 60.76748 | -8.99154 | 34801 ft | 474 kts | 118° |
| 2026-05-08 09:55 | 60.73864 | -8.86978 | 34793 ft | 472 kts | 118° |
| 2026-05-08 09:56 | 60.70725 | -8.75347 | 34789 ft | 469 kts | 130° |
| 2026-05-08 09:56 | 60.66420 | -8.65431 | 34791 ft | 464 kts | 136° |
| 2026-05-08 09:57 | 60.59855 | -8.50951 | 34787 ft | 464 kts | 136° |
| 2026-05-08 09:57 | 60.55503 | -8.41315 | 34786 ft | 463 kts | 136° |
| 2026-05-08 09:58 | 60.51144 | -8.31694 | 34780 ft | 462 kts | 136° |
| 2026-05-08 09:58 | 60.46804 | -8.22103 | 34777 ft | 462 kts | 136° |
| 2026-05-08 09:59 | 60.42464 | -8.12584 | 34778 ft | 461 kts | 136° |
| 2026-05-08 09:59 | 60.38105 | -8.03079 | 34778 ft | 462 kts | 136° |
| 2026-05-08 10:00 | 60.33748 | -7.93604 | 34775 ft | 460 kts | 136° |
| 2026-05-08 10:00 | 60.29355 | -7.84104 | 34784 ft | 460 kts | 137° |
| 2026-05-08 10:01 | 60.25017 | -7.74748 | 34784 ft | 459 kts | 137° |
| 2026-05-08 10:01 | 60.20650 | -7.65379 | 34779 ft | 459 kts | 137° |
| 2026-05-08 10:02 | 60.16276 | -7.56045 | 34781 ft | 460 kts | 137° |
| 2026-05-08 10:02 | 60.11905 | -7.46738 | 34781 ft | 459 kts | 137° |
| 2026-05-08 10:03 | 60.07531 | -7.37475 | 34785 ft | 458 kts | 137° |
| 2026-05-08 10:03 | 60.03128 | -7.28180 | 34781 ft | 458 kts | 137° |
| 2026-05-08 10:04 | 59.98754 | -7.19006 | 34786 ft | 457 kts | 137° |
| 2026-05-08 10:04 | 59.94373 | -7.09857 | 34789 ft | 457 kts | 138° |
| 2026-05-08 10:05 | 59.89995 | -7.00737 | 34797 ft | 456 kts | 138° |
| 2026-05-08 10:05 | 59.85603 | -6.91616 | 34796 ft | 456 kts | 138° |
| 2026-05-08 10:06 | 59.81230 | -6.82552 | 34801 ft | 456 kts | 138° |
| 2026-05-08 10:06 | 59.76843 | -6.73512 | 34806 ft | 456 kts | 139° |
| 2026-05-08 10:07 | 59.72441 | -6.64482 | 34811 ft | 455 kts | 139° |
| 2026-05-08 10:07 | 59.68045 | -6.55496 | 34815 ft | 454 kts | 139° |
| 2026-05-08 10:08 | 59.63650 | -6.46564 | 34817 ft | 453 kts | 139° |
| 2026-05-08 10:08 | 59.59245 | -6.37635 | 34822 ft | 453 kts | 139° |
| 2026-05-08 10:09 | 59.54843 | -6.28753 | 34825 ft | 453 kts | 140° |
| 2026-05-08 10:09 | 59.50442 | -6.19901 | 34830 ft | 452 kts | 140° |
| 2026-05-08 10:10 | 59.46035 | -6.11083 | 34834 ft | 453 kts | 140° |
| 2026-05-08 10:10 | 59.41614 | -6.02273 | 34843 ft | 452 kts | 140° |
| 2026-05-08 10:11 | 59.37213 | -5.93530 | 34850 ft | 451 kts | 140° |
| 2026-05-08 10:11 | 59.32820 | -5.84829 | 34849 ft | 450 kts | 140° |
| 2026-05-08 10:12 | 59.28399 | -5.76121 | 34851 ft | 450 kts | 141° |
| 2026-05-08 10:12 | 59.23985 | -5.67450 | 34863 ft | 451 kts | 141° |
| 2026-05-08 10:13 | 59.19563 | -5.58800 | 34865 ft | 451 kts | 141° |
| 2026-05-08 10:13 | 59.15114 | -5.50138 | 34876 ft | 452 kts | 141° |
| 2026-05-08 10:14 | 59.10678 | -5.41526 | 34872 ft | 452 kts | 141° |
| 2026-05-08 10:14 | 59.06236 | -5.32940 | 34881 ft | 451 kts | 141° |
| 2026-05-08 10:15 | 59.01765 | -5.24336 | 34882 ft | 451 kts | 141° |
| 2026-05-08 10:15 | 58.97313 | -5.15792 | 34889 ft | 452 kts | 142° |
| 2026-05-08 10:16 | 58.92830 | -5.07224 | 34891 ft | 452 kts | 142° |
| 2026-05-08 10:16 | 58.88345 | -4.98691 | 34895 ft | 453 kts | 142° |
| 2026-05-08 10:17 | 58.83876 | -4.90212 | 34895 ft | 452 kts | 142° |
| 2026-05-08 10:17 | 58.79364 | -4.81693 | 34899 ft | 453 kts | 142° |
| 2026-05-08 10:18 | 58.74869 | -4.73240 | 34904 ft | 453 kts | 142° |
| 2026-05-08 10:18 | 58.70367 | -4.64806 | 34909 ft | 452 kts | 142° |
| 2026-05-08 10:19 | 58.66609 | -4.57782 | 34908 ft | 452 kts | 142° |